Time;durP1;ratioP1;P1;durP2;ratioP2;P2;SDS_P1;SDS_P2;PMS_P1;PMS_P2;Temp;Humidity;BMP_temperature;BMP_pressure;BME280_temperature;BME280_humidity;BME280_pressure;Samples;Min_cycle;Max_cycle;Signal;HPM_P1;HPM_P2
2022/01/18 00:00:45;;;;;;;63.45;35.83;;;;;;;1.02;85.42;103008.84;4967018;28;20121;-82
2022/01/18 00:03:12;;;;;;;55.33;29.40;;;;;;;0.99;85.19;103003.84;4982746;28;20042;-80
2022/01/18 00:05:39;;;;;;;54.33;26.90;;;;;;;1.00;85.34;103002.78;4983338;28;20046;-82
2022/01/18 00:08:06;;;;;;;47.22;23.38;;;;;;;1.03;85.83;103003.16;4984637;28;20034;-78
2022/01/18 00:10:34;;;;;;;48.58;23.23;;;;;;;1.07;85.80;102998.94;4965913;28;20112;-77
2022/01/18 00:16:08;;;;;;;50.63;25.23;;;;;;;1.00;85.29;102994.63;4984098;28;21454;-77
2022/01/18 00:18:33;;;;;;;39.40;23.83;;;;;;;1.03;85.51;102999.63;4982443;28;20529;-77
2022/01/18 00:23:46;;;;;;;48.15;22.50;;;;;;;0.99;85.48;103001.13;4983203;28;20054;-78
2022/01/18 00:26:14;;;;;;;43.80;22.98;;;;;;;0.94;85.58;103003.69;4966579;28;20117;-77
2022/01/18 00:28:42;;;;;;;39.90;21.52;;;;;;;0.93;85.34;102997.41;4984650;28;20034;-77
2022/01/18 00:38:52;;;;;;;50.20;19.95;;;;;;;1.02;85.50;103000.66;4978582;28;20038;-77
2022/01/18 00:41:21;;;;;;;38.55;21.77;;;;;;;0.94;85.24;102998.25;4963295;28;20486;-77
2022/01/18 00:43:49;;;;;;;35.08;19.65;;;;;;;0.96;85.29;102985.19;4962157;28;20046;-77
2022/01/18 00:46:16;;;;;;;37.83;20.13;;;;;;;0.94;85.38;102992.78;4963290;28;20042;-77
2022/01/18 00:48:44;;;;;;;38.03;20.25;;;;;;;0.91;85.35;102982.31;4963423;28;20038;-77
2022/01/18 00:51:13;;;;;;;39.47;18.77;;;;;;;0.85;85.76;102977.78;4962885;28;20062;-77
2022/01/18 00:53:43;;;;;;;45.20;20.50;;;;;;;0.85;85.52;102969.63;4964041;28;20030;-77
2022/01/18 00:58:38;;;;;;;46.05;21.50;;;;;;;0.88;85.79;102974.59;4963390;28;20462;-75
2022/01/18 01:01:05;;;;;;;40.58;21.83;;;;;;;0.82;85.47;102967.34;4964589;28;20039;-76
2022/01/18 01:03:32;;;;;;;41.38;19.77;;;;;;;0.78;85.36;102961.50;4964061;28;20487;-75
2022/01/18 01:06:00;;;;;;;44.35;20.50;;;;;;;0.72;85.57;102956.94;4978009;28;20054;-75
2022/01/18 01:08:27;;;;;;;43.33;22.20;;;;;;;0.71;85.68;102952.56;4964515;28;20042;-75
2022/01/18 01:10:55;;;;;;;39.28;21.20;;;;;;;0.67;85.42;102955.94;4962513;28;20156;-75
2022/01/18 01:13:22;;;;;;;49.25;19.83;;;;;;;0.63;85.64;102946.56;4963166;28;20049;-75
2022/01/18 01:45:06;;;;;;;36.33;19.33;;;;;;;0.49;85.96;102900.38;4986285;28;20052;-77
2022/01/18 01:47:37;;;;;;;38.85;18.13;;;;;;;0.47;86.13;102910.69;4984524;28;20070;-76
2022/01/18 01:50:16;;;;;;;31.45;17.95;;;;;;;0.47;85.98;102897.03;4986230;28;20037;-77
2022/01/18 01:52:43;;;;;;;35.03;17.98;;;;;;;0.48;86.25;102895.13;4985111;28;20065;-77
2022/01/18 01:55:10;;;;;;;44.67;19.05;;;;;;;0.50;86.22;102893.84;4987522;28;20385;-77
2022/01/18 01:57:37;;;;;;;36.33;16.70;;;;;;;0.55;86.35;102895.91;4987471;28;20042;-77
2022/01/18 02:00:11;;;;;;;37.22;16.65;;;;;;;0.53;86.71;102892.59;4967502;28;20050;-77
2022/01/18 02:02:38;;;;;;;32.88;17.63;;;;;;;0.57;86.16;102899.25;4985997;28;20466;-77
2022/01/18 02:05:06;;;;;;;27.80;15.18;;;;;;;0.52;86.26;102893.63;4987192;28;20045;-77
2022/01/18 02:07:33;;;;;;;30.05;14.13;;;;;;;0.51;86.66;102890.06;4969376;28;20042;-77
2022/01/18 02:10:00;;;;;;;30.77;14.65;;;;;;;0.50;86.39;102904.75;4968948;28;20054;-77
2022/01/18 02:12:26;;;;;;;34.63;16.45;;;;;;;0.48;86.55;102895.97;4987976;28;20088;-77
2022/01/18 02:14:58;;;;;;;39.20;15.52;;;;;;;0.48;86.64;102895.97;4986501;28;20126;-77
2022/01/18 02:22:57;;;;;;;30.17;14.50;;;;;;;0.55;86.51;102888.56;4987366;28;20033;-77
2022/01/18 02:25:25;;;;;;;34.00;16.33;;;;;;;0.58;86.74;102890.00;4968458;28;20560;-77
2022/01/18 02:27:52;;;;;;;28.85;14.98;;;;;;;0.57;86.56;102883.72;4967993;28;20056;-77
2022/01/18 02:30:18;;;;;;;32.40;15.15;;;;;;;0.59;87.03;102884.31;4967701;28;20169;-77
2022/01/18 02:32:45;;;;;;;36.55;13.98;;;;;;;0.61;87.03;102874.03;4967745;28;20052;-77
2022/01/18 02:35:12;;;;;;;30.13;13.20;;;;;;;0.62;86.83;102877.59;4976800;28;20053;-76
2022/01/18 02:37:39;;;;;;;34.75;14.68;;;;;;;0.64;87.07;102877.38;4976634;28;20049;-77
2022/01/18 02:40:06;;;;;;;38.13;14.60;;;;;;;0.63;87.18;102875.69;4975928;28;20050;-77
2022/01/18 02:42:43;;;;;;;27.73;12.95;;;;;;;0.62;87.03;102885.75;4977677;28;20046;-77
2022/01/18 02:45:10;;;;;;;22.95;13.20;;;;;;;0.61;87.05;102873.19;4975078;28;20046;-77
2022/01/18 02:47:37;;;;;;;25.75;13.07;;;;;;;0.58;86.88;102871.75;4976324;28;20043;-77
2022/01/18 02:50:04;;;;;;;33.25;13.25;;;;;;;0.59;87.08;102875.31;4978432;28;20034;-76
2022/01/18 02:52:31;;;;;;;26.83;13.48;;;;;;;0.60;87.33;102872.38;4977089;28;20050;-77
2022/01/18 02:54:58;;;;;;;39.92;12.38;;;;;;;0.58;87.15;102874.47;4973763;28;20050;-77
2022/01/18 02:57:26;;;;;;;22.35;12.73;;;;;;;0.57;87.55;102875.53;4958643;28;20137;-77
2022/01/18 03:00:13;;;;;;;27.23;12.38;;;;;;;0.59;87.32;102878.88;4958358;28;20039;-77
2022/01/18 03:05:27;;;;;;;27.00;12.45;;;;;;;0.57;87.22;102872.81;4925458;28;20050;-77
2022/01/18 03:07:53;;;;;;;22.92;11.43;;;;;;;0.55;86.92;102868.66;4925293;28;20039;-77
2022/01/18 03:10:20;;;;;;;26.85;11.40;;;;;;;0.52;87.08;102869.09;4924989;28;20053;-77
2022/01/18 03:12:47;;;;;;;24.85;11.75;;;;;;;0.46;87.17;102876.28;4922201;28;20065;-77
2022/01/18 03:15:14;;;;;;;19.52;10.38;;;;;;;0.45;87.38;102890.16;4937386;28;20157;-77
2022/01/18 03:17:41;;;;;;;25.92;11.45;;;;;;;0.46;87.61;102887.19;4925977;28;20062;-77
2022/01/18 03:20:11;;;;;;;28.48;12.70;;;;;;;0.47;87.51;102882.59;4925690;28;21740;-77
2022/01/18 03:22:39;;;;;;;20.63;11.40;;;;;;;0.42;87.40;102879.72;4924247;28;20058;-77
2022/01/18 03:25:27;;;;;;;34.08;11.65;;;;;;;0.42;87.63;102880.53;4925486;28;20309;-77
2022/01/18 03:28:06;;;;;;;27.08;11.52;;;;;;;0.44;87.55;102894.78;4924332;28;21600;-77
2022/01/18 03:30:37;;;;;;;20.67;12.48;;;;;;;0.43;87.32;102887.66;4925140;28;20870;-77
2022/01/18 03:33:07;;;;;;;25.88;12.18;;;;;;;0.46;87.43;102898.09;4925776;28;20062;-77
2022/01/18 03:35:34;;;;;;;31.42;12.23;;;;;;;0.46;87.29;102895.38;4911960;28;20054;-77
2022/01/18 03:38:02;;;;;;;29.40;12.48;;;;;;;0.49;87.39;102875.84;4931204;28;20076;-77
2022/01/18 03:40:29;;;;;;;23.17;11.40;;;;;;;0.50;87.54;102880.22;4909793;28;20046;-77
2022/01/18 03:42:58;;;;;;;31.75;12.70;;;;;;;0.52;87.72;102885.47;4910502;28;20038;-78
2022/01/18 03:45:39;;;;;;;32.13;14.35;;;;;;;0.52;87.81;102875.41;4896507;28;20058;-77
2022/01/18 03:48:10;;;;;;;30.23;11.90;;;;;;;0.55;87.82;102874.94;4909285;28;20153;-77
2022/01/18 03:50:37;;;;;;;29.60;10.85;;;;;;;0.57;87.87;102877.44;4930700;28;20054;-77
2022/01/18 03:53:04;;;;;;;33.42;12.98;;;;;;;0.59;87.95;102869.84;4909863;28;20495;-78
2022/01/18 03:55:31;;;;;;;23.60;10.98;;;;;;;0.63;88.39;102875.69;4909701;28;20047;-77
2022/01/18 03:57:58;;;;;;;32.53;12.15;;;;;;;0.63;88.43;102876.53;4930407;28;20793;-76
2022/01/18 04:00:27;;;;;;;22.67;10.88;;;;;;;0.60;88.23;102872.38;4912046;28;20046;-77
2022/01/18 04:02:54;;;;;;;36.15;12.48;;;;;;;0.59;88.25;102870.69;4929746;28;20686;-77
2022/01/18 04:05:22;;;;;;;23.63;10.95;;;;;;;0.51;87.95;102857.38;4930290;28;20042;-77
2022/01/18 04:07:49;;;;;;;30.42;12.55;;;;;;;0.48;87.86;102873.34;4932124;28;21612;-77
2022/01/18 04:10:16;;;;;;;33.47;12.32;;;;;;;0.47;87.98;102861.63;4929992;28;20042;-77
2022/01/18 04:12:43;;;;;;;25.42;12.70;;;;;;;0.44;88.09;102853.91;4910435;28;20069;-77
2022/01/18 04:15:12;;;;;;;21.80;9.93;;;;;;;0.40;87.89;102849.09;4908678;28;20057;-77
2022/01/18 04:26:04;;;;;;;27.77;11.85;;;;;;;0.30;88.00;102855.09;4930678;28;20053;-77
2022/01/18 04:31:03;;;;;;;22.75;11.60;;;;;;;0.25;88.06;102832.31;4928684;28;20046;-77
2022/01/18 04:33:30;;;;;;;27.77;12.20;;;;;;;0.26;88.28;102837.53;4909650;28;20054;-77
2022/01/18 04:35:58;;;;;;;22.42;12.13;;;;;;;0.24;87.99;102831.47;4929743;28;20057;-77
2022/01/18 04:38:25;;;;;;;22.58;10.02;;;;;;;0.21;88.22;102823.78;4928850;28;20042;-77
2022/01/18 04:40:52;;;;;;;27.88;10.57;;;;;;;0.22;88.44;102825.41;4929679;28;20043;-77
2022/01/18 04:43:41;;;;;;;30.60;11.30;;;;;;;0.19;88.30;102820.41;4908681;28;20054;-77
2022/01/18 04:48:55;;;;;;;21.95;13.15;;;;;;;0.13;88.10;102821.34;4930312;28;20855;-77
2022/01/18 04:51:22;;;;;;;26.45;11.82;;;;;;;0.08;88.28;102818.44;4910364;28;20057;-77
2022/01/18 04:53:54;;;;;;;24.77;10.32;;;;;;;0.05;88.17;102813.47;4909523;28;20145;-77
2022/01/18 04:57:51;;;;;;;27.75;10.38;;;;;;;0.06;88.30;102809.66;4929733;28;20062;-76
2022/01/18 04:59:15;;;;;;;26.90;10.57;;;;;;;0.08;88.20;102812.19;4930408;28;20047;-78
2022/01/18 05:01:45;;;;;;;26.63;11.05;;;;;;;0.07;88.23;102808.63;4929485;28;20042;-77
2022/01/18 05:04:12;;;;;;;33.22;10.98;;;;;;;0.05;88.38;102797.13;4928425;28;20125;-77
2022/01/18 05:06:42;;;;;;;26.25;13.00;;;;;;;0.05;88.19;102805.28;4912344;28;20078;-77
2022/01/18 05:09:10;;;;;;;24.80;12.57;;;;;;;0.05;88.55;102807.19;4930136;28;20057;-77
2022/01/18 05:11:53;;;;;;;28.88;13.88;;;;;;;0.07;88.50;102797.72;4930533;28;20057;-77
2022/01/18 05:14:28;;;;;;;32.05;15.25;;;;;;;0.08;88.40;102804.81;4908387;28;20050;-77
2022/01/18 05:17:11;;;;;;;31.77;13.32;;;;;;;0.08;88.36;102809.47;4929586;28;20055;-77
2022/01/18 05:19:46;;;;;;;36.28;15.05;;;;;;;0.04;88.32;102794.59;4909167;28;20061;-77
2022/01/18 05:25:00;;;;;;;39.10;17.85;;;;;;;0.05;88.61;102816.19;4929236;28;20514;-77
2022/01/18 05:27:27;;;;;;;44.42;17.13;;;;;;;0.09;88.69;102820.13;4929154;28;20544;-77
2022/01/18 05:29:54;;;;;;;37.72;17.73;;;;;;;0.10;88.65;102802.72;4906959;28;20066;-77
2022/01/18 05:32:20;;;;;;;41.45;16.85;;;;;;;0.14;88.75;102812.09;4910307;28;20054;-77
2022/01/18 05:34:48;;;;;;;40.75;15.63;;;;;;;0.16;89.12;102804.53;4910388;28;20612;-77
2022/01/18 05:37:16;;;;;;;37.72;17.45;;;;;;;0.19;89.21;102814.97;4931333;28;20165;-77
2022/01/18 05:39:44;;;;;;;33.92;18.08;;;;;;;0.23;89.03;102810.75;4930716;28;20173;-75
2022/01/18 05:42:10;;;;;;;39.30;17.83;;;;;;;0.25;89.24;102811.34;4929589;28;20046;-75
2022/01/18 05:44:37;;;;;;;43.47;17.88;;;;;;;0.31;89.21;102815.06;4929778;28;20059;-75
2022/01/18 05:47:04;;;;;;;43.10;18.10;;;;;;;0.34;89.19;102820.91;4912402;28;20455;-75
2022/01/18 05:49:31;;;;;;;37.28;17.27;;;;;;;0.37;88.87;102817.69;4965080;28;20069;-75
2022/01/18 05:51:58;;;;;;;32.20;17.13;;;;;;;0.38;89.04;102808.47;4964862;28;20035;-75
2022/01/18 05:54:25;;;;;;;40.17;16.48;;;;;;;0.42;89.43;102806.13;4964772;28;20035;-75
2022/01/18 05:56:51;;;;;;;24.15;15.02;;;;;;;0.44;89.43;102785.78;4963465;28;20407;-76
2022/01/18 05:59:23;;;;;;;39.13;17.33;;;;;;;0.45;89.14;102781.97;4964536;28;20047;-75
2022/01/18 06:01:58;;;;;;;29.58;14.23;;;;;;;0.46;89.11;102786.38;4964357;28;20039;-75
2022/01/18 06:07:12;;;;;;;37.70;16.65;;;;;;;0.50;89.51;102806.66;4964783;28;20037;-75
2022/01/18 06:09:39;;;;;;;31.17;15.95;;;;;;;0.53;89.80;102795.28;4946397;28;20097;-75
2022/01/18 06:12:06;;;;;;;32.90;16.48;;;;;;;0.58;89.90;102789.97;4969666;28;20031;-75
2022/01/18 06:14:33;;;;;;;38.50;16.05;;;;;;;0.60;89.72;102779.72;4967993;28;20482;-75
2022/01/18 06:17:00;;;;;;;35.97;15.55;;;;;;;0.63;89.74;102762.06;4968275;28;20051;-75
2022/01/18 06:19:26;;;;;;;34.05;14.07;;;;;;;0.65;89.65;102764.53;4967714;28;20045;-75
2022/01/18 06:21:53;;;;;;;33.78;14.77;;;;;;;0.66;89.90;102782.56;4951455;28;20051;-75
2022/01/18 06:24:20;;;;;;;35.10;15.93;;;;;;;0.65;89.68;102786.34;4967895;28;20506;-75
2022/01/18 06:27:05;;;;;;;25.45;14.15;;;;;;;0.67;89.70;102789.66;4967944;28;20101;-75
2022/01/18 06:29:31;;;;;;;25.88;12.63;;;;;;;0.67;89.96;102789.66;4968090;28;20129;-74
2022/01/18 06:31:58;;;;;;;28.30;14.38;;;;;;;0.66;89.70;102788.03;4932355;28;20046;-76
2022/01/18 06:34:25;;;;;;;29.90;13.23;;;;;;;0.66;89.77;102782.56;4972249;28;20137;-76
2022/01/18 06:36:51;;;;;;;28.27;13.82;;;;;;;0.67;89.77;102782.31;4977529;28;20037;-76
2022/01/18 06:39:18;;;;;;;32.05;13.60;;;;;;;0.65;89.91;102780.91;4957977;28;20394;-75
2022/01/18 06:41:46;;;;;;;33.65;13.30;;;;;;;0.63;89.73;102780.31;4960776;28;20133;-75
2022/01/18 06:44:13;;;;;;;36.45;13.95;;;;;;;0.64;90.20;102771.06;4976810;28;20039;-76
2022/01/18 06:46:41;;;;;;;33.28;12.75;;;;;;;0.64;89.97;102765.63;4977975;28;20050;-76
2022/01/18 06:49:07;;;;;;;29.23;13.35;;;;;;;0.65;89.89;102761.81;4976314;28;20049;-75
2022/01/18 06:51:35;;;;;;;25.38;13.25;;;;;;;0.65;89.86;102759.09;4977413;28;20054;-76
2022/01/18 06:54:03;;;;;;;27.70;13.80;;;;;;;0.64;89.89;102746.53;4976716;28;20045;-76
2022/01/18 06:56:29;;;;;;;31.30;13.05;;;;;;;0.65;89.95;102764.53;4976859;28;20043;-75
2022/01/18 06:58:59;;;;;;;31.17;12.55;;;;;;;0.65;89.92;102770.00;4976389;28;20478;-75
2022/01/18 07:01:26;;;;;;;23.58;12.55;;;;;;;0.69;89.94;102771.22;4975790;28;20047;-75
2022/01/18 07:03:53;;;;;;;25.75;12.50;;;;;;;0.72;90.27;102765.28;4975439;28;20042;-76
2022/01/18 07:06:20;;;;;;;31.50;12.43;;;;;;;0.73;89.97;102766.94;4959191;28;20161;-75
2022/01/18 07:08:47;;;;;;;29.85;13.38;;;;;;;0.73;90.03;102762.34;4975613;28;20041;-75
2022/01/18 07:11:14;;;;;;;26.95;11.73;;;;;;;0.72;89.87;102759.81;4974641;28;20116;-75
2022/01/18 07:13:41;;;;;;;33.63;13.98;;;;;;;0.74;90.06;102757.72;4976753;28;20046;-76
2022/01/18 07:16:07;;;;;;;30.75;13.70;;;;;;;0.74;90.24;102755.00;4974995;28;20034;-75
2022/01/18 07:18:34;;;;;;;29.17;11.45;;;;;;;0.74;90.09;102752.28;4957911;28;20061;-76
2022/01/18 07:21:01;;;;;;;25.90;13.30;;;;;;;0.74;90.34;102746.81;4973599;28;20097;-75
2022/01/18 07:23:28;;;;;;;29.15;13.70;;;;;;;0.77;90.42;102746.34;4943131;28;20363;-75
2022/01/18 07:25:56;;;;;;;22.77;12.23;;;;;;;0.78;90.06;102748.00;4974550;28;20043;-75
2022/01/18 07:28:23;;;;;;;24.90;12.60;;;;;;;0.78;90.21;102748.00;4978087;28;20039;-75
2022/01/18 07:30:49;;;;;;;28.52;14.68;;;;;;;0.80;90.57;102743.97;4975211;28;20101;-76
2022/01/18 07:33:17;;;;;;;30.17;12.00;;;;;;;0.82;90.28;102744.56;4978962;28;20092;-76
2022/01/18 07:35:45;;;;;;;28.95;14.00;;;;;;;0.83;90.37;102754.44;4984862;28;20034;-75
2022/01/18 07:38:15;;;;;;;42.13;15.77;;;;;;;0.83;90.18;102756.31;4985687;28;20038;-75
2022/01/18 07:40:43;;;;;;;29.23;14.73;;;;;;;0.83;90.42;102756.31;4985252;28;20050;-76
2022/01/18 07:43:13;;;;;;;29.63;14.93;;;;;;;0.83;90.32;102754.44;4986018;28;20430;-75
2022/01/18 07:45:42;;;;;;;32.33;15.75;;;;;;;0.84;90.39;102752.53;4984896;28;20470;-75
2022/01/18 07:48:10;;;;;;;24.92;14.15;;;;;;;0.85;90.46;102754.22;4985760;28;20108;-75
2022/01/18 07:50:41;;;;;;;29.08;14.90;;;;;;;0.84;90.27;102747.09;4967165;28;20034;-76
2022/01/18 07:53:08;;;;;;;30.65;12.85;;;;;;;0.84;90.52;102752.53;4998646;28;20050;-75
2022/01/18 07:55:35;;;;;;;26.42;11.93;;;;;;;0.86;90.39;102753.97;4983542;28;20065;-75
2022/01/18 07:58:01;;;;;;;21.83;12.30;;;;;;;0.88;90.50;102759.19;4985807;28;20030;-75
2022/01/18 08:00:29;;;;;;;32.13;14.50;;;;;;;0.86;90.54;102751.25;4982512;28;20042;-74
2022/01/18 08:02:56;;;;;;;33.17;15.20;;;;;;;0.90;90.70;102755.16;4984590;28;20069;-75
2022/01/18 08:05:23;;;;;;;33.38;15.00;;;;;;;0.90;90.69;102751.63;4966436;28;20057;-75
2022/01/18 08:07:50;;;;;;;30.27;14.48;;;;;;;0.89;90.40;102750.78;4984236;28;22027;-75
2022/01/18 08:10:19;;;;;;;31.75;14.18;;;;;;;0.88;90.62;102749.09;4984888;28;20046;-75
2022/01/18 08:12:46;;;;;;;25.88;13.35;;;;;;;0.90;90.53;102763.34;4983118;28;20042;-75
2022/01/18 08:15:18;;;;;;;24.20;12.85;;;;;;;0.93;90.71;102751.97;4966330;28;20053;-75
2022/01/18 08:17:51;;;;;;;29.38;12.82;;;;;;;0.90;90.71;102749.69;4984804;28;20054;-75
2022/01/18 08:20:18;;;;;;;25.88;12.27;;;;;;;0.93;90.57;102751.13;4967492;28;20038;-75
2022/01/18 08:22:46;;;;;;;27.30;13.00;;;;;;;0.92;90.71;102750.31;4983773;28;20089;-75
2022/01/18 08:25:15;;;;;;;28.08;11.82;;;;;;;0.94;90.79;102755.53;4982573;28;20042;-75
2022/01/18 08:27:43;;;;;;;27.23;12.68;;;;;;;0.94;90.83;102752.81;4984405;28;20125;-75
2022/01/18 08:30:11;;;;;;;17.02;11.18;;;;;;;0.90;90.57;102762.53;4984408;28;20049;-76
2022/01/18 08:32:39;;;;;;;23.02;12.10;;;;;;;0.86;90.75;102756.69;4983317;28;20397;-76
2022/01/18 08:35:06;;;;;;;25.30;11.85;;;;;;;0.85;90.59;102759.66;4976610;28;20054;-76
2022/01/18 08:37:35;;;;;;;30.52;12.60;;;;;;;0.84;90.44;102750.66;4975373;28;20054;-76
2022/01/18 08:40:03;;;;;;;22.55;12.27;;;;;;;0.83;90.69;102750.88;4958555;28;20042;-76
2022/01/18 08:42:30;;;;;;;29.50;13.77;;;;;;;0.82;90.63;102744.56;4982402;28;20062;-76
2022/01/18 08:44:58;;;;;;;31.85;13.60;;;;;;;0.85;90.62;102721.50;4952196;28;20038;-76
2022/01/18 08:47:24;;;;;;;27.75;11.13;;;;;;;0.86;90.97;102723.97;4960982;28;20050;-76
2022/01/18 08:49:53;;;;;;;37.15;11.15;;;;;;;0.92;91.13;102717.59;4979584;28;20039;-76
2022/01/18 08:52:20;;;;;;;27.92;11.52;;;;;;;1.02;91.65;102725.19;4976283;28;20074;-75
2022/01/18 08:54:47;;;;;;;27.52;11.15;;;;;;;1.07;91.33;102707.06;4956753;28;20394;-76
2022/01/18 08:57:15;;;;;;;29.25;11.02;;;;;;;1.11;91.35;102700.06;4956269;28;20034;-76
2022/01/18 08:59:43;;;;;;;19.23;10.48;;;;;;;1.20;91.60;102714.22;4975500;28;20051;-75
2022/01/18 09:02:11;;;;;;;25.52;12.55;;;;;;;1.27;91.58;102700.47;4972898;28;20043;-76
2022/01/18 09:04:39;;;;;;;31.45;12.30;;;;;;;1.34;91.85;102699.28;4972440;28;20068;-76
2022/01/18 09:07:10;;;;;;;22.15;11.60;;;;;;;1.41;91.96;102705.44;4956010;28;20199;-76
2022/01/18 09:09:39;;;;;;;26.37;11.13;;;;;;;1.48;92.27;102710.81;4974430;28;20066;-76
2022/01/18 09:12:10;;;;;;;29.25;11.60;;;;;;;1.57;92.32;102715.66;4987531;28;20050;-76
2022/01/18 09:14:38;;;;;;;27.27;12.40;;;;;;;1.65;92.26;102714.47;4941320;28;20410;-75
2022/01/18 09:17:05;;;;;;;24.13;12.15;;;;;;;1.70;92.75;102718.16;4958447;28;20508;-76
2022/01/18 09:19:34;;;;;;;28.90;12.60;;;;;;;1.77;92.90;102715.31;4975311;28;20047;-76
2022/01/18 09:22:03;;;;;;;25.05;11.02;;;;;;;1.83;92.68;102730.72;4975955;28;20057;-75
2022/01/18 09:24:30;;;;;;;23.50;10.48;;;;;;;1.91;93.26;102743.22;4973139;28;20426;-76
2022/01/18 09:26:57;;;;;;;34.53;12.35;;;;;;;1.96;93.25;102746.84;4974632;28;20052;-76
2022/01/18 09:29:24;;;;;;;61.60;30.45;;;;;;;2.00;93.15;102741.75;4973496;28;20126;-76
2022/01/18 09:31:51;;;;;;;45.38;21.02;;;;;;;2.03;93.22;102741.28;4973245;28;20050;-76
2022/01/18 09:34:18;;;;;;;25.63;12.32;;;;;;;2.06;93.64;102754.47;4973927;28;20047;-74
2022/01/18 09:36:45;;;;;;;42.33;16.23;;;;;;;2.12;93.56;102754.31;4975187;28;20034;-74
2022/01/18 09:39:12;;;;;;;26.42;13.77;;;;;;;2.22;93.83;102745.53;4973053;28;20074;-75
2022/01/18 09:41:42;;;;;;;32.72;15.20;;;;;;;2.25;93.92;102734.13;4971184;28;20130;-75
2022/01/18 09:44:08;;;;;;;40.92;16.98;;;;;;;2.28;93.58;102739.06;4973019;28;20031;-75
2022/01/18 09:46:36;;;;;;;33.08;13.55;;;;;;;2.31;93.90;102739.44;4977759;28;20047;-75
2022/01/18 09:49:05;;;;;;;35.25;14.82;;;;;;;2.37;93.86;102743.09;4978978;28;20513;-75
2022/01/18 09:51:32;;;;;;;27.70;14.02;;;;;;;2.42;94.15;102740.47;4959230;28;20051;-75
2022/01/18 09:53:59;;;;;;;38.72;12.82;;;;;;;2.46;94.26;102730.72;4958936;28;20042;-75
2022/01/18 09:56:30;;;;;;;38.05;14.52;;;;;;;2.53;94.27;102727.84;4977753;28;20105;-75
2022/01/18 09:58:57;;;;;;;27.38;13.30;;;;;;;2.60;94.70;102723.06;4991653;28;20038;-76
2022/01/18 10:01:25;;;;;;;27.73;12.32;;;;;;;2.72;94.73;102721.94;4975279;28;20049;-75
2022/01/18 10:04:14;;;;;;;33.78;12.02;;;;;;;2.81;95.21;102723.19;4974905;28;20066;-76
2022/01/18 10:06:42;;;;;;;32.08;11.55;;;;;;;2.88;94.96;102729.38;4975398;28;22380;-76
2022/01/18 10:09:14;;;;;;;31.45;14.15;;;;;;;2.98;95.20;102739.66;4975463;28;20058;-76
2022/01/18 10:11:59;;;;;;;;;;;;;;;3.06;95.84;102737.34;4974411;28;20038;-76
2022/01/18 10:14:26;;;;;;;38.58;16.35;;;;;;;3.17;95.69;102751.22;4976250;28;19928;-75
2022/01/18 10:16:53;;;;;;;38.13;15.23;;;;;;;3.25;95.17;102759.00;4959142;28;20125;-76
2022/01/18 10:19:38;;;;;;;31.73;12.63;;;;;;;3.32;95.15;102751.47;4979741;28;20053;-76
2022/01/18 10:22:17;;;;;;;28.73;12.88;;;;;;;3.38;95.19;102748.56;4977594;28;20169;-76
2022/01/18 10:24:44;;;;;;;33.67;16.50;;;;;;;3.42;95.49;102751.63;4977936;28;20049;-77
2022/01/18 10:27:16;;;;;;;29.58;13.75;;;;;;;3.49;95.24;102752.31;4977118;28;20129;-76
2022/01/18 10:29:48;;;;;;;35.80;14.57;;;;;;;3.56;95.77;102742.00;4959129;28;20039;-76
2022/01/18 10:37:20;;;;;;;25.15;11.02;;;;;;;3.72;96.60;102763.09;4973523;28;20529;-76
2022/01/18 10:39:50;;;;;;;27.88;11.60;;;;;;;3.80;96.63;102762.66;4978656;28;20038;-76
2022/01/18 10:42:18;;;;;;;25.10;11.30;;;;;;;3.84;96.60;102755.59;4957720;28;20042;-76
2022/01/18 10:44:58;;;;;;;22.33;10.10;;;;;;;3.90;96.93;102749.09;4975321;28;20134;-76
2022/01/18 10:47:26;;;;;;;25.60;12.68;;;;;;;3.96;97.14;102744.53;4976203;28;20139;-77
2022/01/18 10:49:53;;;;;;;28.38;12.13;;;;;;;4.00;97.22;102749.25;4982038;28;20088;-76
2022/01/18 10:52:24;;;;;;;25.73;10.23;;;;;;;4.04;97.50;102744.09;4975917;28;20046;-77
2022/01/18 10:54:54;;;;;;;30.70;13.55;;;;;;;4.12;97.47;102746.41;4974896;28;20126;-77
2022/01/18 10:57:23;;;;;;;28.38;12.73;;;;;;;4.17;97.56;102738.25;4976216;28;20038;-77
2022/01/18 11:00:07;;;;;;;21.27;9.93;;;;;;;4.23;97.34;102738.06;4967142;28;20042;-77
2022/01/18 11:02:36;;;;;;;24.40;10.95;;;;;;;4.30;97.73;102749.69;4976539;28;20383;-77
2022/01/18 11:05:21;;;;;;;20.27;10.73;;;;;;;4.38;97.81;102740.16;4958368;28;20022;-77
2022/01/18 11:07:50;;;;;;;23.40;9.05;;;;;;;4.46;97.91;102742.47;4956878;28;20058;-77
2022/01/18 11:10:20;;;;;;;15.93;7.85;;;;;;;4.58;98.04;102734.91;4959315;28;20499;-78
2022/01/18 11:12:48;;;;;;;20.35;8.32;;;;;;;4.67;98.08;102738.03;4975418;28;20038;-77
2022/01/18 11:15:20;;;;;;;13.60;6.70;;;;;;;4.77;97.95;102735.41;4975621;28;20502;-78
2022/01/18 11:17:58;;;;;;;15.95;6.97;;;;;;;4.87;97.75;102735.53;4975163;28;20031;-77
2022/01/18 11:20:30;;;;;;;16.10;8.00;;;;;;;4.93;97.67;102726.25;4975600;28;20077;-77
2022/01/18 11:22:58;;;;;;;14.55;8.15;;;;;;;4.99;97.55;102725.22;4975081;28;20125;-78
2022/01/18 11:25:26;;;;;;;15.85;7.05;;;;;;;5.03;97.29;102726.34;4976246;28;20101;-78
2022/01/18 11:27:56;;;;;;;14.85;6.90;;;;;;;5.07;97.15;102721.16;4973982;28;20057;-77
2022/01/18 11:30:26;;;;;;;15.57;5.90;;;;;;;5.11;97.44;102717.63;4976205;28;20089;-77
2022/01/18 11:32:55;;;;;;;18.08;5.60;;;;;;;5.19;97.09;102719.91;4976254;28;20031;-77
2022/01/18 11:35:30;;;;;;;12.27;5.22;;;;;;;5.30;97.08;102721.66;4966933;28;20129;-77
2022/01/18 11:37:58;;;;;;;8.27;4.25;;;;;;;5.39;96.76;102717.34;4982752;28;20100;-77
2022/01/18 11:40:25;;;;;;;11.98;5.60;;;;;;;5.48;96.68;102725.94;4966253;28;20042;-78
2022/01/18 11:42:56;;;;;;;16.92;7.28;;;;;;;5.52;96.45;102718.81;4966201;28;20062;-77
2022/01/18 11:45:31;;;;;;;12.85;5.10;;;;;;;5.55;96.59;102718.28;4949639;28;20422;-77
2022/01/18 11:47:59;;;;;;;15.48;6.60;;;;;;;5.55;96.13;102726.53;4965082;28;20060;-77
2022/01/18 11:50:31;;;;;;;15.38;6.75;;;;;;;5.57;96.42;102710.59;4983730;28;20375;-77
2022/01/18 11:53:38;;;;;;;16.58;7.30;;;;;;;5.61;95.66;102694.41;4984460;28;20038;-77
2022/01/18 11:56:11;;;;;;;11.65;6.20;;;;;;;5.65;95.67;102706.53;4959691;28;20137;-77
2022/01/18 11:58:40;;;;;;;13.93;6.10;;;;;;;5.69;95.40;102705.75;4982840;28;20030;-77
2022/01/18 12:01:07;;;;;;;25.85;7.57;;;;;;;5.75;95.46;102701.94;4983282;28;20040;-77
2022/01/18 12:03:49;;;;;;;27.33;8.40;;;;;;;5.79;95.55;102685.75;4983724;28;20062;-77
2022/01/18 12:06:43;;;;;;;17.35;7.45;;;;;;;5.80;95.00;102679.16;4982316;28;20443;-77
2022/01/18 12:09:40;;;;;;;15.63;6.90;;;;;;;5.80;94.82;102688.22;4985238;28;20077;-77
2022/01/18 12:12:48;;;;;;;16.27;6.25;;;;;;;5.84;94.83;102694.00;4981421;28;20038;-78
2022/01/18 12:15:16;;;;;;;15.23;6.13;;;;;;;5.88;94.81;102684.16;4983602;28;20074;-77
2022/01/18 12:18:16;;;;;;;13.07;5.80;;;;;;;5.92;94.93;102685.28;4964134;28;20082;-77
2022/01/18 12:20:52;;;;;;;18.70;7.00;;;;;;;5.93;94.65;102676.78;4966597;28;20089;-77
2022/01/18 12:23:26;;;;;;;13.15;7.03;;;;;;;5.92;94.39;102674.31;4984935;28;20038;-76
2022/01/18 12:26:01;;;;;;;21.10;8.27;;;;;;;5.91;94.43;102675.38;4949573;28;20047;-78
2022/01/18 12:34:35;;;;;;;9.27;4.47;;;;;;;6.10;93.98;102654.59;4984314;28;20046;-80
2022/01/18 12:37:07;;;;;;;8.50;4.00;;;;;;;6.15;93.81;102654.59;4984389;28;20080;-77
2022/01/18 12:39:49;;;;;;;24.15;8.13;;;;;;;6.23;93.53;102659.59;4984841;28;20169;-77
2022/01/18 12:45:06;;;;;;;14.60;5.47;;;;;;;6.31;93.58;102645.31;4983141;28;20038;-77
2022/01/18 12:47:37;;;;;;;12.48;6.30;;;;;;;6.37;93.57;102641.47;4983026;28;20046;-77
2022/01/18 12:50:08;;;;;;;16.65;5.70;;;;;;;6.39;93.67;102620.03;4964911;28;20279;-77
2022/01/18 12:53:07;;;;;;;23.90;8.25;;;;;;;6.44;93.42;102625.53;4963976;28;20490;-77
2022/01/18 12:55:38;;;;;;;11.43;4.45;;;;;;;6.51;93.60;102628.84;4952143;28;20042;-77
2022/01/18 12:58:07;;;;;;;5.35;3.97;;;;;;;6.56;93.53;102631.63;4983287;28;20050;-77